WetterOnline ( https://www.wetteronline.de )

Wetter aktuell Kappeln

Aktuelles Wetter: Schönhagen (Ostseebad) (2m)

6-stündlich | Neueste Meldungen
Ortszeit Temperatur Wetter
So, 23.02. 1:00 6.4° C wolkig
Sa, 22.02. 19:00 7.0° C bewölkt
Sa, 22.02. 13:00 8.9° C Regen
Sa, 22.02. 7:00 7.5° C leichter Regen
Sa, 22.02. 1:00 7.1° C Regen
Fr, 21.02. 19:00 6.5° C leichter Regen
Fr, 21.02. 13:00 7.4° C bewölkt
Fr, 21.02. 7:00 4.1° C wolkig
Ortszeit Temperatur Wetter
So, 23.02. 5:00 6.4° C wolkig
So, 23.02. 4:50 6.4° C wolkig
So, 23.02. 4:40 6.4° C wolkig
So, 23.02. 4:30 6.4° C bewölkt
So, 23.02. 4:20 6.4° C bewölkt
So, 23.02. 4:10 6.3° C bewölkt
So, 23.02. 4:00 6.2° C wolkig
So, 23.02. 3:30 5.6° C leichter Regen
So, 23.02. 3:00 6.2° C wolkig
So, 23.02. 2:30 6.5° C bewölkt
So, 23.02. 2:00 6.3° C wolkig
Ortszeit Relative Feuchte Sichtweite
So, 23.02. 1:00 68% 25 km
Sa, 22.02. 19:00 74% 25 km
Sa, 22.02. 13:00 87% 15 km
Sa, 22.02. 7:00 88% 9 km
Sa, 22.02. 1:00 91% 2.7 km
Fr, 21.02. 19:00 85% 13 km
Fr, 21.02. 13:00 74% 24 km
Fr, 21.02. 7:00 82% 23 km
Ortszeit Relative Feuchte Sichtweite
So, 23.02. 5:00 73% 21 km
So, 23.02. 4:50 73% -
So, 23.02. 4:40 73% -
So, 23.02. 4:30 72% 21 km
So, 23.02. 4:20 72% -
So, 23.02. 4:10 73% -
So, 23.02. 4:00 72% 24 km
So, 23.02. 3:30 78% -
So, 23.02. 3:00 71% 22 km
So, 23.02. 2:30 69% 22 km
So, 23.02. 2:00 67% 24 km
Ortszeit Niederschlagsmenge Niederschlagsart
So, 23.02. 1:00 0.1 l/m2 in 6 Std. Regen
Sa, 22.02. 19:00 7 l/m2 in 12 Std. Regen
Sa, 22.02. 13:00 7 l/m2 in 6 Std. Regen
Sa, 22.02. 7:00 8 l/m2 in 12 Std. Regenschauer
Sa, 22.02. 1:00 2 l/m2 in 6 Std. Regen
Fr, 21.02. 19:00 1 l/m2 in 12 Std. Regen
Fr, 21.02. 13:00 0.1 l/m2 in 6 Std. Regen
Fr, 21.02. 7:00 4 l/m2 in 12 Std. Regen
Ortszeit Niederschlagsmenge Niederschlagsart
So, 23.02. 5:00 0.0 l/m2 in 1 Std. -
So, 23.02. 4:50 keine Meldung -
So, 23.02. 4:40 keine Meldung -
So, 23.02. 4:30 0.0 l/m2 in 1 Std. -
So, 23.02. 4:20 keine Meldung -
So, 23.02. 4:10 keine Meldung -
So, 23.02. 4:00 0.6 l/m2 in 1 Std. Regen
So, 23.02. 3:30 0.5 l/m2 in 1 Std. -
So, 23.02. 3:00 0.1 l/m2 in 1 Std. Regen, Niederschlag
So, 23.02. 2:30 0.0 l/m2 in 1 Std. -
So, 23.02. 2:00 0.1 l/m2 in 1 Std. Regen
Ortszeit Stärke Spitze Richtung
km/h Bft. km/h Grad Sektor
So, 23.02. 1:00 47 6 79 260° W
Sa, 22.02. 19:00 40 6 90 260° W
Sa, 22.02. 13:00 54 7 83 250° W
Sa, 22.02. 7:00 48 6 78 230° SW
Sa, 22.02. 1:00 39 6 67 230° SW
Fr, 21.02. 19:00 40 6 61 230° SW
Fr, 21.02. 13:00 40 6 61 250° W
Fr, 21.02. 7:00 19 3 72 240° SW
Ortszeit Stärke Spitze Richtung
km/h Bft. km/h Grad Sektor
So, 23.02. 5:00 40 6 65 260° W
So, 23.02. 4:50 40 6 - 260° W
So, 23.02. 4:40 37 5 - 260° W
So, 23.02. 4:30 43 6 65 260° W
So, 23.02. 4:20 43 6 - 260° W
So, 23.02. 4:10 41 6 - 260° W
So, 23.02. 4:00 43 6 83 260° W
So, 23.02. 3:30 40 6 83 270° W
So, 23.02. 3:00 41 6 80 260° W
So, 23.02. 2:30 43 6 79 260° W
So, 23.02. 2:00 43 6 76 260° W
Ortszeit Untergrenze Bedeckung Gattung
total tief tief mittel hoch
So, 23.02. 1:00 900 m 6/8 6/8 - - -
Sa, 22.02. 19:00 870 m 8/8 5/8 - - -
Sa, 22.02. 13:00 60 m 8/8 8/8 - - -
Sa, 22.02. 7:00 60 m 7/8 7/8 - - -
Sa, 22.02. 1:00 330 m 8/8 8/8 - - -
Fr, 21.02. 19:00 540 m 7/8 7/8 - - -
Fr, 21.02. 13:00 750 m 7/8 7/8 - - -
Fr, 21.02. 7:00 1410 m 6/8 6/8 - - -
Ortszeit Bedeckungsgrad in Achtel und Wolkenuntergrenze
So, 23.02. 5:00 4(870m) 7(4500m) 7(7200m)
So, 23.02. 4:50 4(870m) 7(4500m) 7(7200m)
So, 23.02. 4:40 5(930m) 7(4800m) 7(7200m)
So, 23.02. 4:30 4(990m) 8(5100m) 8(7500m)
So, 23.02. 4:20 4(990m) 8(5100m) 8(7500m)
So, 23.02. 4:10 4(960m) 8(5100m) 8(7200m)
So, 23.02. 4:00 1(810m) 4(960m) 7(5400m)
So, 23.02. 3:30 5(750m) 8(5400m) 8(6600m)
So, 23.02. 3:00 3(1050m) 7(6000m) 7(7200m)
So, 23.02. 2:30 3(1110m) 7(1800m) 7(6000m)
So, 23.02. 2:00 4(1050m) 7(6600m) 7(7800m)
Ortszeit Luftdruck NN (hPa) Tendenz (hPa in 3 Std.)
So, 23.02. 1:00 1008 + 0,4
Sa, 22.02. 19:00 1007 + 2,5
Sa, 22.02. 13:00 1003 - 1,7
Sa, 22.02. 7:00 1007 - 2,7
Sa, 22.02. 1:00 1013 - 2,0
Fr, 21.02. 19:00 1016 - 0,7
Fr, 21.02. 13:00 1016 + 0,9
Fr, 21.02. 7:00 1012 + 3,3
Ortszeit Luftdruck NN (hPa) Tendenz (hPa in 3 Std.)
So, 23.02. 5:00 1008 - 0,8
So, 23.02. 4:50 1008 keine Meldung
So, 23.02. 4:40 1008 keine Meldung
So, 23.02. 4:30 1008 - 0,1
So, 23.02. 4:20 1008 keine Meldung
So, 23.02. 4:10 1008 keine Meldung
So, 23.02. 4:00 1008 + 0,2
So, 23.02. 3:30 1008 + 0,1
So, 23.02. 3:00 1008 + 0,1
So, 23.02. 2:30 1009 + 0,8
So, 23.02. 2:00 1009 + 0,7
Ortszeit Schneehöhe (cm)
So, 23.02. 1:00 0
Sa, 22.02. 19:00 0
Sa, 22.02. 13:00 0
Sa, 22.02. 7:00 0
Sa, 22.02. 1:00 0
Fr, 21.02. 19:00 0
Fr, 21.02. 13:00 0
Fr, 21.02. 7:00 0
Ortszeit Schneehöhe (cm)
So, 23.02. 5:00 0
So, 23.02. 4:50 0
So, 23.02. 4:40 0
So, 23.02. 4:30 0
So, 23.02. 4:20 0
So, 23.02. 4:10 0
So, 23.02. 4:00 0
So, 23.02. 3:30 0
So, 23.02. 3:00 0
So, 23.02. 2:30 0
So, 23.02. 2:00 0
Link zu dieser Seite / Seite empfehlen

Das Wetter in ...